Time;durP1;ratioP1;P1;durP2;ratioP2;P2;SDS_P1;SDS_P2;PMS_P1;PMS_P2;Temp;Humidity;BMP_temperature;BMP_pressure;BME280_temperature;BME280_humidity;BME280_pressure;Samples;Min_cycle;Max_cycle;Signal;HPM_P1;HPM_P2
2022/10/13 00:01:55;;;;;;;50.50;33.33;;;;;;;;;;5029191;28;20436;-41
2022/10/13 00:04:21;;;;;;;48.27;33.77;;;;;;;;;;5023712;28;20541;-43
2022/10/13 00:06:48;;;;;;;49.07;32.73;;;;;;;;;;5024930;28;20221;-43
2022/10/13 00:09:14;;;;;;;47.33;33.33;;;;;;;;;;5028827;28;20244;-43
2022/10/13 00:11:40;;;;;;;43.17;33.17;;;;;;;;;;5021497;28;20662;-43
2022/10/13 00:14:06;;;;;;;49.57;32.37;;;;;;;;;;5024730;28;20358;-42
2022/10/13 00:16:32;;;;;;;50.00;33.23;;;;;;;;;;5023139;28;20206;-43
2022/10/13 00:18:58;;;;;;;47.63;32.70;;;;;;;;;;5024813;28;20722;-42
2022/10/13 00:21:25;;;;;;;43.63;32.23;;;;;;;;;;5026279;28;20183;-42
2022/10/13 00:23:52;;;;;;;45.63;32.50;;;;;;;;;;5028565;28;20258;-43
2022/10/13 00:26:19;;;;;;;46.07;32.17;;;;;;;;;;5030201;28;20285;-42
2022/10/13 00:28:45;;;;;;;45.27;32.00;;;;;;;;;;5025509;28;20198;-43
2022/10/13 00:31:16;;;;;;;49.97;33.53;;;;;;;;;;5024023;28;20172;-42
2022/10/13 00:33:42;;;;;;;50.70;35.00;;;;;;;;;;5023655;28;20493;-43
2022/10/13 00:36:08;;;;;;;41.00;31.13;;;;;;;;;;5028366;28;20593;-41
2022/10/13 00:38:34;;;;;;;49.60;32.90;;;;;;;;;;5028917;28;20334;-42
2022/10/13 00:41:00;;;;;;;47.73;33.47;;;;;;;;;;5025593;28;20178;-43
2022/10/13 00:43:46;;;;;;;43.27;32.23;;;;;;;;;;5024194;28;20283;-42
2022/10/13 00:46:13;;;;;;;41.37;29.80;;;;;;;;;;5024372;28;20211;-43
2022/10/13 00:48:40;;;;;;;37.27;28.37;;;;;;;;;;5028659;28;20719;-43
2022/10/13 00:51:06;;;;;;;40.70;29.10;;;;;;;;;;5025825;28;20284;-43
2022/10/13 00:53:34;;;;;;;43.07;28.47;;;;;;;;;;5023386;28;20198;-43
2022/10/13 00:56:00;;;;;;;41.63;27.80;;;;;;;;;;5024676;28;20172;-42
2022/10/13 00:58:31;;;;;;;42.87;30.80;;;;;;;;;;5027936;28;20254;-44
2022/10/13 01:00:58;;;;;;;44.57;30.57;;;;;;;;;;5024857;28;20687;-43
2022/10/13 01:03:24;;;;;;;42.60;29.90;;;;;;;;;;5024287;28;20175;-43
2022/10/13 01:05:51;;;;;;;47.40;31.20;;;;;;;;;;5022967;28;20175;-42
2022/10/13 01:08:17;;;;;;;38.97;28.47;;;;;;;;;;5022930;28;21157;-43
2022/10/13 01:11:02;;;;;;;42.53;27.70;;;;;;;;;;5024077;28;20217;-43
2022/10/13 01:13:28;;;;;;;40.47;28.60;;;;;;;;;;5026419;28;20957;-43
2022/10/13 01:15:54;;;;;;;37.93;27.57;;;;;;;;;;5024558;28;20806;-42
2022/10/13 01:18:24;;;;;;;45.77;31.27;;;;;;;;;;5020128;28;20180;-43
2022/10/13 01:21:04;;;;;;;47.80;32.23;;;;;;;;;;5021725;28;20207;-42
2022/10/13 01:23:33;;;;;;;44.27;30.27;;;;;;;;;;5023838;28;20182;-43
2022/10/13 01:26:18;;;;;;;44.27;30.90;;;;;;;;;;5024133;28;20171;-43
2022/10/13 01:28:44;;;;;;;42.33;30.00;;;;;;;;;;5022226;28;20712;-43
2022/10/13 01:31:19;;;;;;;44.37;30.63;;;;;;;;;;5020741;28;20516;-42
2022/10/13 01:34:00;;;;;;;42.57;31.20;;;;;;;;;;5025761;28;20259;-42
2022/10/13 01:36:36;;;;;;;42.73;31.03;;;;;;;;;;5025968;28;20198;-42
2022/10/13 01:39:09;;;;;;;45.67;31.50;;;;;;;;;;5023187;28;20207;-42
2022/10/13 01:41:37;;;;;;;45.27;32.20;;;;;;;;;;5024316;28;20273;-42
2022/10/13 01:44:15;;;;;;;51.40;34.47;;;;;;;;;;5025271;28;20487;-44
2022/10/13 01:46:42;;;;;;;41.80;30.23;;;;;;;;;;5024458;28;20448;-42
2022/10/13 01:49:14;;;;;;;51.83;32.77;;;;;;;;;;5026690;28;20175;-42
2022/10/13 01:51:40;;;;;;;41.40;30.30;;;;;;;;;;5026198;28;20253;-43
2022/10/13 01:54:06;;;;;;;46.53;32.97;;;;;;;;;;5025189;28;20708;-42
2022/10/13 01:56:32;;;;;;;47.77;33.97;;;;;;;;;;5026839;28;20923;-42
2022/10/13 01:59:00;;;;;;;48.63;33.47;;;;;;;;;;5021609;28;20172;-42
2022/10/13 02:01:29;;;;;;;45.37;32.33;;;;;;;;;;5021296;28;20835;-41
2022/10/13 02:04:05;;;;;;;47.43;32.37;;;;;;;;;;5023830;28;20206;-41
2022/10/13 02:06:49;;;;;;;45.83;31.73;;;;;;;;;;5024200;28;20264;-42
2022/10/13 02:09:26;;;;;;;49.97;31.93;;;;;;;;;;5023284;28;20176;-41
2022/10/13 02:11:59;;;;;;;42.67;30.70;;;;;;;;;;5019948;28;20698;-43
2022/10/13 02:14:28;;;;;;;40.93;31.20;;;;;;;;;;5022418;28;20175;-41
2022/10/13 02:16:55;;;;;;;43.70;31.57;;;;;;;;;;5024916;28;20792;-43
2022/10/13 02:19:22;;;;;;;41.23;30.03;;;;;;;;;;5027703;28;20194;-43
2022/10/13 02:21:48;;;;;;;42.93;30.80;;;;;;;;;;5024150;28;20443;-42
2022/10/13 02:24:14;;;;;;;46.70;33.10;;;;;;;;;;5024650;28;20175;-43
2022/10/13 02:26:42;;;;;;;44.57;33.73;;;;;;;;;;5019720;28;20302;-43
2022/10/13 02:29:15;;;;;;;46.60;34.43;;;;;;;;;;5024216;28;20186;-43
2022/10/13 02:31:42;;;;;;;51.10;34.57;;;;;;;;;;5022044;28;20962;-43
2022/10/13 02:34:09;;;;;;;43.73;32.03;;;;;;;;;;5022831;28;20494;-42
2022/10/13 02:36:37;;;;;;;45.40;32.70;;;;;;;;;;5020004;28;20269;-43
2022/10/13 02:39:03;;;;;;;54.17;36.07;;;;;;;;;;5016634;28;20287;-42
2022/10/13 02:41:30;;;;;;;54.80;37.43;;;;;;;;;;5022834;28;20183;-42
2022/10/13 02:43:56;;;;;;;49.17;34.40;;;;;;;;;;5031707;28;20601;-43
2022/10/13 02:46:22;;;;;;;46.33;33.50;;;;;;;;;;5026660;28;20172;-43
2022/10/13 02:48:48;;;;;;;44.67;33.17;;;;;;;;;;5023406;28;20178;-43
2022/10/13 02:51:14;;;;;;;47.07;32.80;;;;;;;;;;5023521;28;20976;-42
2022/10/13 02:53:40;;;;;;;42.47;30.90;;;;;;;;;;5024323;28;20481;-42
2022/10/13 02:56:06;;;;;;;51.10;34.43;;;;;;;;;;5026382;28;20216;-43
2022/10/13 02:58:33;;;;;;;41.60;31.33;;;;;;;;;;5025402;28;20550;-43
2022/10/13 03:01:06;;;;;;;47.23;32.97;;;;;;;;;;5023024;28;20512;-43
2022/10/13 03:03:32;;;;;;;53.03;36.33;;;;;;;;;;5021328;28;20172;-43
2022/10/13 03:05:58;;;;;;;49.47;34.73;;;;;;;;;;5025418;28;20175;-42
2022/10/13 03:08:24;;;;;;;48.27;33.57;;;;;;;;;;5025386;28;20172;-42
2022/10/13 03:10:50;;;;;;;44.80;33.27;;;;;;;;;;5029999;28;20203;-42
2022/10/13 03:13:17;;;;;;;45.87;33.30;;;;;;;;;;5027607;28;20175;-43
2022/10/13 03:15:43;;;;;;;54.23;37.80;;;;;;;;;;5024813;28;20186;-41
2022/10/13 03:18:09;;;;;;;61.03;41.00;;;;;;;;;;5026214;28;20196;-42
2022/10/13 03:20:35;;;;;;;60.77;40.70;;;;;;;;;;5026216;28;20588;-42
2022/10/13 03:23:01;;;;;;;52.23;36.60;;;;;;;;;;5031079;28;20180;-42
2022/10/13 03:25:27;;;;;;;59.83;41.20;;;;;;;;;;5027232;28;20710;-42
2022/10/13 03:27:55;;;;;;;61.27;40.97;;;;;;;;;;5019165;28;20415;-41
2022/10/13 03:30:21;;;;;;;69.23;44.77;;;;;;;;;;5022984;28;20180;-43
2022/10/13 03:32:47;;;;;;;62.57;40.30;;;;;;;;;;5026753;28;20179;-45
2022/10/13 03:35:13;;;;;;;57.97;42.83;;;;;;;;;;5028876;28;20261;-42
2022/10/13 03:37:39;;;;;;;57.47;39.70;;;;;;;;;;5029142;28;20375;-43
2022/10/13 03:40:05;;;;;;;68.10;43.77;;;;;;;;;;5026907;28;20541;-42
2022/10/13 03:42:32;;;;;;;68.27;44.93;;;;;;;;;;5024262;28;20572;-43
2022/10/13 03:44:58;;;;;;;52.77;38.70;;;;;;;;;;5023937;28;20176;-43
2022/10/13 03:47:24;;;;;;;68.47;44.30;;;;;;;;;;5025652;28;21259;-43
2022/10/13 03:49:52;;;;;;;64.43;43.83;;;;;;;;;;5024600;28;20584;-41
2022/10/13 03:52:18;;;;;;;65.40;45.63;;;;;;;;;;5028732;28;20183;-41
2022/10/13 03:54:44;;;;;;;57.07;40.70;;;;;;;;;;5023653;28;20175;-42
2022/10/13 03:57:10;;;;;;;57.90;40.47;;;;;;;;;;5024344;28;21064;-44
2022/10/13 03:59:36;;;;;;;55.50;39.80;;;;;;;;;;5025232;28;20395;-42
2022/10/13 04:02:02;;;;;;;54.40;38.17;;;;;;;;;;5025535;28;20178;-43
2022/10/13 04:04:28;;;;;;;55.13;38.93;;;;;;;;;;5027683;28;20569;-43
2022/10/13 04:06:54;;;;;;;52.47;37.40;;;;;;;;;;5025488;28;20180;-42
2022/10/13 04:09:20;;;;;;;52.90;37.50;;;;;;;;;;5023900;28;20176;-43
2022/10/13 04:11:49;;;;;;;62.17;40.30;;;;;;;;;;5021978;28;21357;-43
2022/10/13 04:14:15;;;;;;;69.17;44.40;;;;;;;;;;5023494;28;20180;-43
2022/10/13 04:16:41;;;;;;;64.23;43.60;;;;;;;;;;5027628;28;20207;-43
2022/10/13 04:19:07;;;;;;;63.13;43.07;;;;;;;;;;5027144;28;20271;-43
2022/10/13 04:21:34;;;;;;;70.87;46.80;;;;;;;;;;5023412;28;20172;-42
2022/10/13 04:24:01;;;;;;;73.20;48.33;;;;;;;;;;5022689;28;20715;-43
2022/10/13 04:26:28;;;;;;;71.83;48.93;;;;;;;;;;5026995;28;20486;-42
2022/10/13 04:28:55;;;;;;;61.97;44.50;;;;;;;;;;5022029;28;20260;-43
2022/10/13 04:31:21;;;;;;;63.17;44.23;;;;;;;;;;5020125;28;20484;-43
2022/10/13 04:33:48;;;;;;;73.33;47.63;;;;;;;;;;5022112;28;20646;-42
2022/10/13 04:36:15;;;;;;;80.93;52.07;;;;;;;;;;5023176;28;20257;-41
2022/10/13 04:38:41;;;;;;;77.60;51.30;;;;;;;;;;5025161;28;20183;-41
2022/10/13 04:41:08;;;;;;;67.83;46.53;;;;;;;;;;5024518;28;20180;-41
2022/10/13 04:43:34;;;;;;;75.07;51.43;;;;;;;;;;5021220;28;20167;-42
2022/10/13 04:46:04;;;;;;;69.50;46.43;;;;;;;;;;5025329;28;20517;-43
2022/10/13 04:48:30;;;;;;;65.57;45.97;;;;;;;;;;5024888;28;20401;-42
2022/10/13 04:51:03;;;;;;;73.23;48.20;;;;;;;;;;5023074;28;21014;-42
2022/10/13 04:53:30;;;;;;;72.93;48.00;;;;;;;;;;5024311;28;20569;-43
2022/10/13 04:56:00;;;;;;;72.83;48.67;;;;;;;;;;5022273;28;20798;-42
2022/10/13 04:58:26;;;;;;;76.73;50.47;;;;;;;;;;5021375;28;20188;-43
2022/10/13 05:00:52;;;;;;;77.07;47.23;;;;;;;;;;5027185;28;20179;-43
2022/10/13 05:03:18;;;;;;;74.90;47.53;;;;;;;;;;5023878;28;20175;-42
2022/10/13 05:05:44;;;;;;;77.47;50.73;;;;;;;;;;5025817;28;20627;-43
2022/10/13 05:08:10;;;;;;;79.63;50.90;;;;;;;;;;5023726;28;20734;-42
2022/10/13 05:10:36;;;;;;;73.83;48.90;;;;;;;;;;5025977;28;20654;-43
2022/10/13 05:13:03;;;;;;;74.57;46.67;;;;;;;;;;5025769;28;20176;-42
2022/10/13 05:15:29;;;;;;;83.70;50.97;;;;;;;;;;5028412;28;20179;-42
2022/10/13 05:17:55;;;;;;;72.17;43.90;;;;;;;;;;5021674;28;20207;-42
2022/10/13 05:20:21;;;;;;;71.90;47.57;;;;;;;;;;5018356;28;20765;-42
2022/10/13 05:22:47;;;;;;;85.10;50.80;;;;;;;;;;5024980;28;20850;-43
2022/10/13 05:25:13;;;;;;;82.13;52.20;;;;;;;;;;5020668;28;20187;-43
2022/10/13 05:27:39;;;;;;;76.57;50.53;;;;;;;;;;5023193;28;20195;-42
2022/10/13 05:30:06;;;;;;;79.97;50.47;;;;;;;;;;5021164;28;20982;-42
2022/10/13 05:32:34;;;;;;;71.20;46.70;;;;;;;;;;5019060;28;20741;-41
2022/10/13 05:35:00;;;;;;;75.53;49.47;;;;;;;;;;5022663;28;20187;-42
2022/10/13 05:37:26;;;;;;;106.40;62.90;;;;;;;;;;5024967;28;20206;-42
2022/10/13 05:39:52;;;;;;;89.97;58.43;;;;;;;;;;5022133;28;20695;-42
2022/10/13 05:42:18;;;;;;;86.57;54.63;;;;;;;;;;5015214;28;20696;-41
2022/10/13 05:44:44;;;;;;;100.57;60.37;;;;;;;;;;5023740;28;20227;-42
2022/10/13 05:47:11;;;;;;;121.53;72.73;;;;;;;;;;5025806;28;20720;-40
2022/10/13 05:49:38;;;;;;;139.07;79.90;;;;;;;;;;5026408;28;20179;-42
2022/10/13 05:52:07;;;;;;;108.20;69.27;;;;;;;;;;5028685;28;20426;-42
2022/10/13 05:54:39;;;;;;;119.40;69.67;;;;;;;;;;5025822;28;20508;-42
2022/10/13 05:57:10;;;;;;;113.70;69.43;;;;;;;;;;5024294;28;20199;-42
2022/10/13 05:59:39;;;;;;;128.17;79.40;;;;;;;;;;5029398;28;20183;-42
2022/10/13 06:02:06;;;;;;;134.47;82.20;;;;;;;;;;5024570;28;20693;-41
2022/10/13 06:04:41;;;;;;;125.17;78.17;;;;;;;;;;5023126;28;20230;-42
2022/10/13 06:07:08;;;;;;;125.87;78.37;;;;;;;;;;5025670;28;20709;-42
2022/10/13 06:09:36;;;;;;;140.13;81.67;;;;;;;;;;5021682;28;20191;-45
2022/10/13 06:12:02;;;;;;;124.83;77.53;;;;;;;;;;5023867;28;20179;-42
2022/10/13 06:14:29;;;;;;;144.40;84.90;;;;;;;;;;5024377;28;20180;-44
2022/10/13 06:16:55;;;;;;;143.60;87.10;;;;;;;;;;5028323;28;20199;-44
2022/10/13 06:19:21;;;;;;;147.50;85.93;;;;;;;;;;5023288;28;20176;-44
2022/10/13 06:21:47;;;;;;;148.10;86.57;;;;;;;;;;5022635;28;21073;-44
2022/10/13 06:24:13;;;;;;;150.20;89.33;;;;;;;;;;5025625;28;20279;-44
2022/10/13 06:26:40;;;;;;;142.10;84.00;;;;;;;;;;5027289;28;20195;-43
2022/10/13 06:29:06;;;;;;;135.03;81.57;;;;;;;;;;5026191;28;20197;-43
2022/10/13 06:31:32;;;;;;;134.10;79.23;;;;;;;;;;5022713;28;20172;-44
2022/10/13 06:33:58;;;;;;;132.87;81.80;;;;;;;;;;5024691;28;20948;-42
2022/10/13 06:36:25;;;;;;;128.70;77.00;;;;;;;;;;5020528;28;20813;-44
2022/10/13 06:38:51;;;;;;;124.90;77.27;;;;;;;;;;5027885;28;20615;-42
2022/10/13 06:41:17;;;;;;;111.10;69.87;;;;;;;;;;5023505;28;20167;-42
2022/10/13 06:43:43;;;;;;;105.47;65.63;;;;;;;;;;5025854;28;20194;-44
2022/10/13 06:46:10;;;;;;;107.73;67.40;;;;;;;;;;5029970;28;20281;-44
2022/10/13 06:48:37;;;;;;;124.70;69.87;;;;;;;;;;5028327;28;20375;-44
2022/10/13 06:51:04;;;;;;;110.63;66.17;;;;;;;;;;5026353;28;20983;-44
2022/10/13 06:53:30;;;;;;;107.93;66.57;;;;;;;;;;5027376;28;20195;-44
2022/10/13 06:56:00;;;;;;;112.73;66.27;;;;;;;;;;5031102;28;20333;-44
2022/10/13 06:58:26;;;;;;;106.17;65.77;;;;;;;;;;5031833;28;20206;-44
2022/10/13 07:00:52;;;;;;;93.37;60.13;;;;;;;;;;5027282;28;20180;-44
2022/10/13 07:03:18;;;;;;;103.50;63.57;;;;;;;;;;5027456;28;21163;-44
2022/10/13 07:05:44;;;;;;;105.20;62.73;;;;;;;;;;5026473;28;20625;-44
2022/10/13 07:08:10;;;;;;;93.33;59.50;;;;;;;;;;5029803;28;20168;-44
2022/10/13 07:10:37;;;;;;;106.23;66.07;;;;;;;;;;5031889;28;20184;-44
2022/10/13 07:13:03;;;;;;;96.80;61.90;;;;;;;;;;5027368;28;20834;-43
2022/10/13 07:15:30;;;;;;;99.53;61.03;;;;;;;;;;5026035;28;20612;-43
2022/10/13 07:17:56;;;;;;;90.60;57.37;;;;;;;;;;5027943;28;20237;-45
2022/10/13 07:20:22;;;;;;;85.60;55.43;;;;;;;;;;5027709;28;20907;-43
2022/10/13 07:22:48;;;;;;;82.10;56.47;;;;;;;;;;5030979;28;20167;-44
2022/10/13 07:25:15;;;;;;;80.93;53.87;;;;;;;;;;5033281;28;20207;-43
2022/10/13 07:27:42;;;;;;;80.93;54.03;;;;;;;;;;5027488;28;20313;-43
2022/10/13 07:30:09;;;;;;;71.13;49.00;;;;;;;;;;5027488;28;20187;-43
2022/10/13 07:32:35;;;;;;;79.37;51.93;;;;;;;;;;5031693;28;20305;-43
2022/10/13 07:35:01;;;;;;;76.23;49.93;;;;;;;;;;5028843;28;20168;-43
2022/10/13 07:37:27;;;;;;;78.33;51.03;;;;;;;;;;5028553;28;20979;-44
2022/10/13 07:39:54;;;;;;;76.67;49.87;;;;;;;;;;5028127;28;20784;-44
2022/10/13 07:42:20;;;;;;;69.30;44.87;;;;;;;;;;5026924;28;20167;-44
2022/10/13 07:44:46;;;;;;;65.57;44.37;;;;;;;;;;5029657;28;20171;-44
2022/10/13 07:47:12;;;;;;;47.47;35.37;;;;;;;;;;5022812;28;20894;-44
2022/10/13 07:49:38;;;;;;;59.03;38.43;;;;;;;;;;5028287;28;20285;-45
2022/10/13 07:52:04;;;;;;;60.43;38.53;;;;;;;;;;5031731;28;20315;-45
2022/10/13 07:54:30;;;;;;;60.10;39.30;;;;;;;;;;5026169;28;20179;-45
2022/10/13 07:56:56;;;;;;;60.97;40.63;;;;;;;;;;5025353;28;20203;-42
2022/10/13 07:59:22;;;;;;;63.33;41.30;;;;;;;;;;5028670;28;20172;-45
2022/10/13 08:01:49;;;;;;;60.80;41.60;;;;;;;;;;5031953;28;20175;-43
2022/10/13 08:04:15;;;;;;;61.50;41.17;;;;;;;;;;5029287;28;20869;-42
2022/10/13 08:06:41;;;;;;;58.87;39.37;;;;;;;;;;5026605;28;20168;-43
2022/10/13 08:09:07;;;;;;;58.53;39.17;;;;;;;;;;5027948;28;20583;-45
2022/10/13 08:11:34;;;;;;;60.00;39.77;;;;;;;;;;5031286;28;20633;-42
2022/10/13 08:14:00;;;;;;;56.57;38.90;;;;;;;;;;5029802;28;20203;-43
2022/10/13 08:16:30;;;;;;;61.03;42.10;;;;;;;;;;5029046;28;20819;-43
2022/10/13 08:18:57;;;;;;;53.33;36.87;;;;;;;;;;5028416;28;20769;-42
2022/10/13 08:21:24;;;;;;;57.13;38.87;;;;;;;;;;5028885;28;20226;-43
2022/10/13 08:23:50;;;;;;;53.83;37.80;;;;;;;;;;5031877;28;20250;-43
2022/10/13 08:26:17;;;;;;;55.07;36.20;;;;;;;;;;5031056;28;20180;-43
2022/10/13 08:28:44;;;;;;;56.90;35.57;;;;;;;;;;5026843;28;20191;-42
2022/10/13 08:31:10;;;;;;;46.90;32.57;;;;;;;;;;5029073;28;20183;-43
2022/10/13 08:33:36;;;;;;;45.73;30.93;;;;;;;;;;5031780;28;20175;-43
2022/10/13 08:36:02;;;;;;;46.03;30.37;;;;;;;;;;5031625;28;20206;-43
2022/10/13 08:38:28;;;;;;;45.30;28.97;;;;;;;;;;5031239;28;20315;-43
2022/10/13 08:40:54;;;;;;;45.33;29.63;;;;;;;;;;5031068;28;20735;-42
2022/10/13 08:43:22;;;;;;;39.87;27.70;;;;;;;;;;5028589;28;20218;-43
2022/10/13 08:45:52;;;;;;;41.90;27.80;;;;;;;;;;5030446;28;20356;-44
2022/10/13 08:48:21;;;;;;;39.07;27.50;;;;;;;;;;5028048;28;20188;-42
2022/10/13 08:50:48;;;;;;;44.27;29.33;;;;;;;;;;5028176;28;21086;-45
2022/10/13 08:53:35;;;;;;;46.03;28.63;;;;;;;;;;5029381;28;20328;-45
2022/10/13 08:56:07;;;;;;;41.63;29.37;;;;;;;;;;5032822;28;20188;-45
2022/10/13 08:58:34;;;;;;;42.73;30.43;;;;;;;;;;5030047;28;20303;-45
2022/10/13 09:01:09;;;;;;;44.03;28.60;;;;;;;;;;5029070;28;20171;-45
2022/10/13 09:03:55;;;;;;;47.40;28.07;;;;;;;;;;5028821;28;20238;-44
2022/10/13 09:06:28;;;;;;;39.60;28.23;;;;;;;;;;5035644;28;20187;-45
2022/10/13 09:08:55;;;;;;;42.70;30.73;;;;;;;;;;5028737;28;21332;-45
2022/10/13 09:11:21;;;;;;;43.70;29.30;;;;;;;;;;5028954;28;20182;-42
2022/10/13 09:13:48;;;;;;;40.80;28.43;;;;;;;;;;5028820;28;20182;-43
2022/10/13 09:16:14;;;;;;;42.17;28.83;;;;;;;;;;5032461;28;20176;-43
2022/10/13 09:18:40;;;;;;;37.90;26.77;;;;;;;;;;5032809;28;20179;-42
2022/10/13 09:21:20;;;;;;;33.57;22.77;;;;;;;;;;5030359;28;21215;-43
2022/10/13 09:23:48;;;;;;;33.73;23.90;;;;;;;;;;5030629;28;20950;-42
2022/10/13 09:26:19;;;;;;;36.23;24.33;;;;;;;;;;5031297;28;20168;-43
2022/10/13 09:28:46;;;;;;;29.80;18.90;;;;;;;;;;5029934;28;20184;-42
2022/10/13 09:31:12;;;;;;;34.87;22.70;;;;;;;;;;5028578;28;20175;-43
2022/10/13 09:33:38;;;;;;;32.60;23.87;;;;;;;;;;5024293;28;20176;-43
2022/10/13 09:36:09;;;;;;;33.90;24.07;;;;;;;;;;5025699;28;20293;-43
2022/10/13 09:38:35;;;;;;;35.37;22.33;;;;;;;;;;5027848;28;20620;-42
2022/10/13 09:41:11;;;;;;;31.93;21.77;;;;;;;;;;5028950;28;20206;-43
2022/10/13 09:43:58;;;;;;;41.17;23.03;;;;;;;;;;5026131;28;20381;-42
2022/10/13 09:46:29;;;;;;;29.30;21.47;;;;;;;;;;5024376;28;21042;-43
2022/10/13 09:48:57;;;;;;;30.60;21.83;;;;;;;;;;5025571;28;20597;-43
2022/10/13 09:51:43;;;;;;;29.57;21.33;;;;;;;;;;5028123;28;20175;-43
2022/10/13 09:54:25;;;;;;;34.80;22.87;;;;;;;;;;5029818;28;20200;-44
2022/10/13 09:56:57;;;;;;;29.93;21.47;;;;;;;;;;5025389;28;20479;-44
2022/10/13 09:59:23;;;;;;;33.27;21.80;;;;;;;;;;5024562;28;20203;-44
2022/10/13 10:01:50;;;;;;;33.40;20.87;;;;;;;;;;5030866;28;20301;-44
2022/10/13 10:04:19;;;;;;;30.17;20.20;;;;;;;;;;5029624;28;20210;-44
2022/10/13 10:06:45;;;;;;;33.77;21.00;;;;;;;;;;5028039;28;20167;-43
2022/10/13 10:09:33;;;;;;;31.30;20.60;;;;;;;;;;5024639;28;20180;-43
2022/10/13 10:12:00;;;;;;;30.20;20.77;;;;;;;;;;5022493;28;20579;-45
2022/10/13 10:14:31;;;;;;;33.87;20.20;;;;;;;;;;5025031;28;21541;-43
2022/10/13 10:17:07;;;;;;;29.90;21.10;;;;;;;;;;5031484;28;20574;-43
2022/10/13 10:19:33;;;;;;;29.60;21.40;;;;;;;;;;5027706;28;20888;-43
2022/10/13 10:22:03;;;;;;;35.53;22.27;;;;;;;;;;5023202;28;20973;-43
2022/10/13 10:24:45;;;;;;;33.83;22.27;;;;;;;;;;5024013;28;20442;-42
2022/10/13 10:27:11;;;;;;;25.30;18.47;;;;;;;;;;5029995;28;20630;-45
2022/10/13 10:29:37;;;;;;;29.10;19.60;;;;;;;;;;5030433;28;20179;-43
2022/10/13 10:32:23;;;;;;;25.33;19.40;;;;;;;;;;5028409;28;20779;-44
2022/10/13 10:34:54;;;;;;;31.00;19.53;;;;;;;;;;5006175;28;20512;-43
2022/10/13 10:37:23;;;;;;;25.83;18.60;;;;;;;;;;5024804;28;20195;-43
2022/10/13 10:40:08;;;;;;;28.47;18.63;;;;;;;;;;5026440;28;20168;-43
2022/10/13 10:42:53;;;;;;;29.33;19.10;;;;;;;;;;5026890;28;20182;-43
2022/10/13 10:45:31;;;;;;;34.10;21.03;;;;;;;;;;5027315;28;20703;-43
2022/10/13 10:48:00;;;;;;;29.83;20.00;;;;;;;;;;5023537;28;20171;-43
2022/10/13 10:50:27;;;;;;;25.77;18.33;;;;;;;;;;5025584;28;20592;-43
2022/10/13 10:53:02;;;;;;;24.83;17.67;;;;;;;;;;5029107;28;20642;-43
2022/10/13 10:55:42;;;;;;;31.57;17.87;;;;;;;;;;5023790;28;20179;-43
2022/10/13 10:58:16;;;;;;;26.97;18.93;;;;;;;;;;5024113;28;20681;-43
2022/10/13 11:00:48;;;;;;;27.50;19.87;;;;;;;;;;5025027;28;20929;-43
2022/10/13 11:03:21;;;;;;;27.93;19.33;;;;;;;;;;5026765;28;20168;-43
2022/10/13 11:05:56;;;;;;;23.73;17.30;;;;;;;;;;5027053;28;20765;-43
2022/10/13 11:08:29;;;;;;;26.40;18.83;;;;;;;;;;5023708;28;20614;-43
2022/10/13 11:11:19;;;;;;;28.30;19.57;;;;;;;;;;5023078;28;20179;-43
2022/10/13 11:14:04;;;;;;;31.10;18.93;;;;;;;;;;5020101;28;20196;-43
2022/10/13 11:16:30;;;;;;;25.90;17.87;;;;;;;;;;5023950;28;20804;-43
2022/10/13 11:19:04;;;;;;;24.50;16.90;;;;;;;;;;5025778;28;20626;-43
2022/10/13 11:21:49;;;;;;;23.33;17.03;;;;;;;;;;5022923;28;20182;-43
2022/10/13 11:24:37;;;;;;;21.53;16.43;;;;;;;;;;5024278;28;20654;-43
2022/10/13 11:27:15;;;;;;;23.20;15.47;;;;;;;;;;5026315;28;20479;-43
2022/10/13 11:29:45;;;;;;;20.67;14.83;;;;;;;;;;5028534;28;20350;-42
2022/10/13 11:32:20;;;;;;;27.60;16.33;;;;;;;;;;5026211;28;20180;-42
2022/10/13 11:34:57;;;;;;;21.57;14.23;;;;;;;;;;5028197;28;20614;-42
2022/10/13 11:37:23;;;;;;;25.87;17.50;;;;;;;;;;5032338;28;20670;-42
2022/10/13 11:39:59;;;;;;;19.37;15.20;;;;;;;;;;5031502;28;20338;-41
2022/10/13 11:42:47;;;;;;;24.00;16.17;;;;;;;;;;5029251;28;20711;-42
2022/10/13 11:45:27;;;;;;;19.53;14.10;;;;;;;;;;5024974;28;20176;-44
2022/10/13 11:47:54;;;;;;;18.77;13.27;;;;;;;;;;5025407;28;20183;-44
2022/10/13 11:50:25;;;;;;;17.07;13.07;;;;;;;;;;5031803;28;20183;-43
2022/10/13 11:52:54;;;;;;;19.90;13.17;;;;;;;;;;5029944;28;20180;-44
2022/10/13 11:55:31;;;;;;;18.47;14.13;;;;;;;;;;5026276;28;20540;-44
2022/10/13 11:58:07;;;;;;;20.37;13.73;;;;;;;;;;5027468;28;20836;-44
2022/10/13 12:00:34;;;;;;;16.90;11.53;;;;;;;;;;5028323;28;20178;-44
2022/10/13 12:03:00;;;;;;;17.67;12.57;;;;;;;;;;5033595;28;20231;-44
2022/10/13 12:05:27;;;;;;;19.53;13.37;;;;;;;;;;5028737;28;20410;-43
2022/10/13 12:07:55;;;;;;;18.77;14.77;;;;;;;;;;5028180;28;20860;-45
2022/10/13 12:10:34;;;;;;;21.43;14.63;;;;;;;;;;5026035;28;20580;-42
2022/10/13 12:13:01;;;;;;;22.93;15.50;;;;;;;;;;5030410;28;20256;-42
2022/10/13 12:15:34;;;;;;;24.60;17.03;;;;;;;;;;5027633;28;20579;-43
2022/10/13 12:18:01;;;;;;;20.97;14.53;;;;;;;;;;5029555;28;20195;-43
2022/10/13 12:20:28;;;;;;;21.73;15.30;;;;;;;;;;5033576;28;20461;-43
2022/10/13 12:22:54;;;;;;;21.07;14.83;;;;;;;;;;5029825;28;20275;-43
2022/10/13 12:25:22;;;;;;;23.70;15.63;;;;;;;;;;5032400;28;20267;-43
2022/10/13 12:27:51;;;;;;;20.00;13.43;;;;;;;;;;5026471;28;20745;-42
2022/10/13 12:30:22;;;;;;;22.03;15.00;;;;;;;;;;5027173;28;20182;-43
2022/10/13 12:32:49;;;;;;;21.17;14.83;;;;;;;;;;5029245;28;20168;-43
2022/10/13 12:35:17;;;;;;;19.13;14.10;;;;;;;;;;5031472;28;20172;-43
2022/10/13 12:37:43;;;;;;;18.57;13.87;;;;;;;;;;5026522;28;20316;-43
2022/10/13 12:40:13;;;;;;;18.47;13.50;;;;;;;;;;5026674;28;20195;-43
2022/10/13 12:42:39;;;;;;;25.57;16.53;;;;;;;;;;5029816;28;20743;-43
2022/10/13 12:45:05;;;;;;;20.07;15.73;;;;;;;;;;5027696;28;20709;-43
2022/10/13 12:47:37;;;;;;;27.97;16.60;;;;;;;;;;5028606;28;20177;-44
2022/10/13 12:50:21;;;;;;;23.30;15.53;;;;;;;;;;5027211;28;20186;-42
2022/10/13 12:52:48;;;;;;;24.80;15.80;;;;;;;;;;5027771;28;20564;-44
2022/10/13 12:55:17;;;;;;;23.47;15.07;;;;;;;;;;5029166;28;20212;-44
2022/10/13 12:57:45;;;;;;;19.43;13.80;;;;;;;;;;5027075;28;20199;-43
2022/10/13 13:00:17;;;;;;;22.50;13.90;;;;;;;;;;5028657;28;20631;-44
2022/10/13 13:02:49;;;;;;;20.07;13.77;;;;;;;;;;5028400;28;20176;-44
2022/10/13 13:05:38;;;;;;;19.03;12.97;;;;;;;;;;5024854;28;20344;-44
2022/10/13 13:08:06;;;;;;;18.97;13.57;;;;;;;;;;5027874;28;20613;-44
2022/10/13 13:10:33;;;;;;;18.73;14.37;;;;;;;;;;5025623;28;20525;-44
2022/10/13 13:13:13;;;;;;;18.30;13.97;;;;;;;;;;5029042;28;20211;-44
2022/10/13 13:15:40;;;;;;;18.77;13.43;;;;;;;;;;5028608;28;20232;-44
2022/10/13 13:18:24;;;;;;;23.60;14.37;;;;;;;;;;5023503;28;20222;-44
2022/10/13 13:20:50;;;;;;;17.50;12.83;;;;;;;;;;5027606;28;20203;-44
2022/10/13 13:23:18;;;;;;;18.57;13.80;;;;;;;;;;5029712;28;20738;-45
2022/10/13 13:25:47;;;;;;;19.63;13.17;;;;;;;;;;5028629;28;20599;-44
2022/10/13 13:28:15;;;;;;;16.00;12.43;;;;;;;;;;5029065;28;20461;-44
2022/10/13 13:30:42;;;;;;;16.97;13.90;;;;;;;;;;5024433;28;20211;-43
2022/10/13 13:33:09;;;;;;;19.80;12.63;;;;;;;;;;5023381;28;20731;-44
2022/10/13 13:35:36;;;;;;;19.83;12.80;;;;;;;;;;5025515;28;20703;-43
2022/10/13 13:38:03;;;;;;;20.40;11.97;;;;;;;;;;5026486;28;20230;-43
2022/10/13 13:40:30;;;;;;;19.63;12.83;;;;;;;;;;5027455;28;20172;-42
2022/10/13 13:42:56;;;;;;;21.20;13.20;;;;;;;;;;5025911;28;20727;-43
2022/10/13 13:45:26;;;;;;;18.93;12.47;;;;;;;;;;5022484;28;20256;-42
2022/10/13 13:47:52;;;;;;;16.47;11.67;;;;;;;;;;5027754;28;20960;-43
2022/10/13 13:50:21;;;;;;;17.80;11.80;;;;;;;;;;5030731;28;20862;-43
2022/10/13 13:52:47;;;;;;;18.37;12.07;;;;;;;;;;5026306;28;20226;-43
2022/10/13 13:55:13;;;;;;;17.07;11.43;;;;;;;;;;5023793;28;20518;-43
2022/10/13 13:57:40;;;;;;;19.47;12.67;;;;;;;;;;5021964;28;20667;-43
2022/10/13 14:00:06;;;;;;;18.83;12.47;;;;;;;;;;5023152;28;20476;-43
2022/10/13 14:02:32;;;;;;;19.83;12.37;;;;;;;;;;5028312;28;20172;-43
2022/10/13 14:04:58;;;;;;;23.03;12.87;;;;;;;;;;5024572;28;20356;-43
2022/10/13 14:07:24;;;;;;;24.43;13.13;;;;;;;;;;5021676;28;20219;-43
2022/10/13 14:09:51;;;;;;;17.10;12.63;;;;;;;;;;5025703;28;20326;-43
2022/10/13 14:12:17;;;;;;;19.93;12.63;;;;;;;;;;5024255;28;20257;-43
2022/10/13 14:14:43;;;;;;;16.10;10.90;;;;;;;;;;5024700;28;20186;-43
2022/10/13 14:17:09;;;;;;;17.70;11.43;;;;;;;;;;5026661;28;20546;-42
2022/10/13 14:19:35;;;;;;;15.77;11.03;;;;;;;;;;5027788;28;20627;-43
2022/10/13 14:22:01;;;;;;;19.60;12.10;;;;;;;;;;5021340;28;20560;-43
2022/10/13 14:24:28;;;;;;;14.83;10.97;;;;;;;;;;5020544;28;20191;-43
2022/10/13 14:26:54;;;;;;;19.03;12.27;;;;;;;;;;5025977;28;20253;-43